createdAt,value
2019-03-10T03:07:38.623Z,4.8
2019-03-10T03:08:28.990Z,4.8
2019-03-10T03:09:19.317Z,4.8
2019-03-10T03:10:09.357Z,4.8
2019-03-10T03:10:59.393Z,4.7
2019-03-10T03:11:49.519Z,4.8
2019-03-10T03:12:39.272Z,4.7
2019-03-10T03:13:29.592Z,4.8
2019-03-10T03:14:19.640Z,4.8
2019-03-10T03:15:09.705Z,4.7
2019-03-10T03:15:59.512Z,4.7
2019-03-10T03:16:52.573Z,4.7
2019-03-10T03:17:39.333Z,4.7
2019-03-10T03:18:29.685Z,4.7
2019-03-10T03:19:19.512Z,4.7
2019-03-10T03:20:10.047Z,4.6
2019-03-10T03:21:00.209Z,4.6
2019-03-10T03:21:50.195Z,4.6
2019-03-10T03:22:39.958Z,4.6
2019-03-10T03:23:30.292Z,4.6
2019-03-10T03:24:20.363Z,4.6
2019-03-10T03:25:10.159Z,4.6
2019-03-10T03:26:00.034Z,4.6
2019-03-10T03:26:50.550Z,4.6
2019-03-10T03:27:40.355Z,4.6
2019-03-10T03:28:30.408Z,4.6
2019-03-10T03:29:20.180Z,4.5
2019-03-10T03:30:10.812Z,4.5
2019-03-10T03:31:00.618Z,4.5
2019-03-10T03:31:50.155Z,4.5
2019-03-10T03:32:40.819Z,4.5
2019-03-10T03:33:31.089Z,4.4
2019-03-10T03:34:20.681Z,4.4
2019-03-10T03:35:11.215Z,4.4
2019-03-10T03:36:01.327Z,4.4
2019-03-10T03:36:51.268Z,4.4
2019-03-10T03:37:41.315Z,4.4
2019-03-10T03:38:31.383Z,4.4
2019-03-10T03:39:20.887Z,4.4
2019-03-10T03:40:10.966Z,4.4
2019-03-10T03:41:01.575Z,4.4
2019-03-10T03:41:51.360Z,4.3
2019-03-10T03:42:41.761Z,4.3
2019-03-10T03:43:31.758Z,4.3
2019-03-10T03:44:21.535Z,4.3
2019-03-10T03:45:11.870Z,4.3
2019-03-10T03:46:01.401Z,4.3
2019-03-10T03:46:51.729Z,4.3
2019-03-10T03:47:41.743Z,4.3
2019-03-10T03:48:31.859Z,4.3
2019-03-10T03:49:22.172Z,4.3
2019-03-10T03:50:11.670Z,4.3
2019-03-10T03:51:02.029Z,4.3
2019-03-10T03:51:52.138Z,4.3
2019-03-10T03:52:41.867Z,4.3
2019-03-10T03:53:31.913Z,4.3
2019-03-10T03:54:21.740Z,4.3
2019-03-10T03:55:12.342Z,4.3
2019-03-10T03:56:02.109Z,4.3
2019-03-10T03:56:52.446Z,4.3
2019-03-10T03:57:42.489Z,4.3
2019-03-10T03:58:32.840Z,4.3
2019-03-10T03:59:22.440Z,4.3
2019-03-10T04:00:12.390Z,4.4
2019-03-10T04:01:02.986Z,4.4
2019-03-10T04:01:53.118Z,4.4
2019-03-10T04:02:42.612Z,4.4
2019-03-10T04:03:33.216Z,4.5
2019-03-10T04:04:22.975Z,4.5
2019-03-10T04:05:13.374Z,4.5
2019-03-10T04:06:03.401Z,4.5
2019-03-10T04:06:53.162Z,4.5
2019-03-10T04:07:43.495Z,4.5
2019-03-10T04:08:33.029Z,4.5
2019-03-10T04:09:23.620Z,4.4
2019-03-10T04:10:13.689Z,4.4
2019-03-10T04:11:03.223Z,4.4
2019-03-10T04:11:53.521Z,4.4
2019-03-10T04:12:43.289Z,4.4
2019-03-10T04:13:33.926Z,4.4
2019-03-10T04:14:24.004Z,4.4
2019-03-10T04:15:13.774Z,4.3
2019-03-10T04:16:03.628Z,4.3
2019-03-10T04:16:53.952Z,4.3
2019-03-10T04:17:43.950Z,4.3
2019-03-10T04:18:34.388Z,4.3
2019-03-10T04:19:23.778Z,4.3
2019-03-10T04:20:14.140Z,4.2
2019-03-10T04:21:03.956Z,4.2
2019-03-10T04:21:54.236Z,4.2
2019-03-10T04:22:44.608Z,4.1
2019-03-10T04:23:34.643Z,4.1
2019-03-10T04:24:24.148Z,4.1
2019-03-10T04:25:14.759Z,4.1
2019-03-10T04:26:04.620Z,4.1
2019-03-10T04:26:54.878Z,4.1
2019-03-10T04:27:44.677Z,4.1
2019-03-10T04:28:35.104Z,4.1
2019-03-10T04:29:25.098Z,4.1
2019-03-10T04:30:15.145Z,4.1
2019-03-10T04:31:04.927Z,4.1
2019-03-10T04:31:55.280Z,4.1
2019-03-10T04:32:45.340Z,4.1
2019-03-10T04:33:35.363Z,4.1
2019-03-10T04:34:24.885Z,4.1
2019-03-10T04:35:15.493Z,4.1
2019-03-10T04:36:05.250Z,4.1
2019-03-10T04:36:55.596Z,4.1
2019-03-10T04:37:45.654Z,4.1
2019-03-10T04:38:35.709Z,4.1
2019-03-10T04:39:25.510Z,4.1
2019-03-10T04:40:15.328Z,4.1
2019-03-10T04:41:05.912Z,4.1
2019-03-10T04:41:55.690Z,4.1
2019-03-10T04:42:45.752Z,4.1
2019-03-10T04:43:36.077Z,4.1
2019-03-10T04:44:25.868Z,4.2
2019-03-10T04:45:16.199Z,4.2
2019-03-10T04:46:06.289Z,4.2
2019-03-10T04:46:56.319Z,4.2
2019-03-10T04:47:46.379Z,4.2
2019-03-10T04:48:36.442Z,4.2
2019-03-10T04:49:26.509Z,4.2
2019-03-10T04:50:18.579Z,4.3
2019-03-10T04:51:06.351Z,4.3
2019-03-10T04:51:56.676Z,4.3
2019-03-10T04:52:46.471Z,4.3
2019-03-10T04:53:36.804Z,4.3
2019-03-10T04:54:26.600Z,4.3
2019-03-10T04:55:16.647Z,4.3
2019-03-10T04:56:06.996Z,4.3
2019-03-10T04:56:59.506Z,4.3
2019-03-10T04:57:46.823Z,4.3
2019-03-10T04:58:37.164Z,4.3
2019-03-10T04:59:26.953Z,4.3
2019-03-10T05:00:17.014Z,4.4
2019-03-10T05:01:07.334Z,4.4
2019-03-10T05:01:57.124Z,4.4
2019-03-10T05:02:47.191Z,4.4
2019-03-10T05:03:37.254Z,4.4
2019-03-10T05:04:27.310Z,4.4
2019-03-10T05:05:17.096Z,4.4
2019-03-10T05:06:07.737Z,4.4
2019-03-10T05:06:57.498Z,4.4
2019-03-10T05:07:47.558Z,4.4
2019-03-10T05:08:37.889Z,4.5
2019-03-10T05:09:27.684Z,4.5
2019-03-10T05:10:17.453Z,4.5
2019-03-10T05:11:07.840Z,4.6
2019-03-10T05:11:58.134Z,4.6
2019-03-10T05:12:47.926Z,4.6
2019-03-10T05:13:38.260Z,4.6
2019-03-10T05:14:28.315Z,4.6
2019-03-10T05:15:18.103Z,4.6
2019-03-10T05:16:08.213Z,4.7
2019-03-10T05:16:58.213Z,4.7
2019-03-10T05:17:48.278Z,4.8
2019-03-10T05:18:37.789Z,4.8
2019-03-10T05:19:28.135Z,4.8
2019-03-10T05:20:18.732Z,4.8
2019-03-10T05:21:08.571Z,4.8
2019-03-10T05:21:58.572Z,4.8
2019-03-10T05:22:48.918Z,4.9
2019-03-10T05:23:38.994Z,4.9
2019-03-10T05:24:28.260Z,4.9
2019-03-10T05:25:19.057Z,4.9
2019-03-10T05:26:08.344Z,4.9
2019-03-10T05:26:58.950Z,5
2019-03-10T05:27:49.000Z,5
2019-03-10T05:28:39.344Z,5
2019-03-10T05:29:29.399Z,5.1
2019-03-10T05:30:19.457Z,5.1
2019-03-10T05:31:09.530Z,5.1
2019-03-10T05:31:59.572Z,5.1
2019-03-10T05:32:49.701Z,5.2
2019-03-10T05:33:39.704Z,5.2
2019-03-10T05:34:29.480Z,5.3
2019-03-10T05:35:19.562Z,5.3
2019-03-10T05:36:09.617Z,5.3
2019-03-10T05:36:59.936Z,5.4
2019-03-10T05:37:50.009Z,5.4
2019-03-10T05:38:40.069Z,5.4
2019-03-10T05:39:29.842Z,5.4
2019-03-10T05:40:19.899Z,5.5
2019-03-10T05:41:09.409Z,5.6
2019-03-10T05:41:59.781Z,5.6
2019-03-10T05:42:50.354Z,5.6
2019-03-10T05:43:40.439Z,5.7
2019-03-10T05:44:30.489Z,5.8
2019-03-10T05:45:20.545Z,5.8
2019-03-10T05:46:10.649Z,5.8
2019-03-10T05:47:00.383Z,5.9
2019-03-10T05:47:50.753Z,6
2019-03-10T05:48:40.901Z,6.1
2019-03-10T05:49:30.843Z,6.2
2019-03-10T05:50:20.626Z,6.3
2019-03-10T05:51:10.687Z,6.4
2019-03-10T05:52:00.755Z,6.4
2019-03-10T05:52:51.098Z,6.6
2019-03-10T05:53:40.586Z,6.7
2019-03-10T05:54:31.221Z,6.8
2019-03-10T05:55:21.260Z,6.9
2019-03-10T05:56:11.063Z,7.1
2019-03-10T05:57:01.389Z,7.1
2019-03-10T05:57:51.186Z,7.3
2019-03-10T05:58:41.233Z,7.4
2019-03-10T05:59:31.307Z,7.5
2019-03-10T06:00:21.631Z,7.7
2019-03-10T06:01:11.700Z,7.8
2019-03-10T06:02:01.772Z,8
2019-03-10T06:02:51.530Z,8.3
2019-03-10T06:03:41.867Z,8.6
2019-03-10T06:05:38.505Z,9.3
2019-03-10T06:06:28.795Z,9.9
2019-03-10T06:07:18.858Z,10.4
2019-03-10T06:08:09.185Z,10.9
2019-03-10T06:08:59.025Z,11.4
2019-03-10T06:09:49.320Z,11.8
2019-03-10T06:10:39.361Z,12.3
2019-03-10T06:11:29.429Z,12.7
2019-03-10T06:12:19.531Z,13.2
2019-03-10T06:13:09.272Z,13.6
2019-03-10T06:13:59.318Z,14.1
2019-03-10T06:14:49.667Z,14.6
2019-03-10T06:15:39.449Z,15.1
2019-03-10T06:16:29.776Z,15.6
2019-03-10T06:17:21.352Z,16.1
2019-03-10T06:18:15.611Z,16.6
2019-03-10T06:18:59.969Z,17.1
2019-03-10T06:19:50.041Z,17.6
2019-03-10T06:20:40.091Z,18.1
2019-03-10T06:21:30.156Z,18.6
2019-03-10T06:22:19.931Z,19.1
2019-03-10T06:23:09.714Z,19.6
2019-03-10T06:24:00.329Z,20.1
2019-03-10T06:24:49.833Z,20.6
2019-03-10T06:26:30.509Z,21.7
2019-03-10T06:27:20.577Z,22.3
2019-03-10T06:28:10.092Z,22.8
2019-03-10T06:29:00.425Z,23.4
2019-03-10T06:29:50.479Z,23.9
2019-03-10T06:30:40.821Z,24.5
2019-03-10T06:31:30.602Z,25.1
2019-03-10T06:32:20.944Z,25.6
2019-03-10T06:33:10.708Z,26.3
2019-03-10T06:34:01.054Z,26.8
2019-03-10T06:34:50.844Z,27.4
2019-03-10T06:35:41.175Z,28
2019-03-10T06:36:30.959Z,28.6
2019-03-10T06:37:21.031Z,29.2
2019-03-10T06:38:11.075Z,29.8
2019-03-10T06:39:01.204Z,30.4
2019-03-10T06:39:50.928Z,30.9
2019-03-10T06:40:41.285Z,31.5
2019-03-10T06:41:31.043Z,32.1
2019-03-10T06:42:21.388Z,32.7
2019-03-10T06:43:11.707Z,33.3
2019-03-10T06:44:01.772Z,33.9
2019-03-10T06:44:51.876Z,34.5
2019-03-10T06:45:41.620Z,35.1
2019-03-10T06:46:31.688Z,35.7
2019-03-10T06:47:21.735Z,36.3
2019-03-10T06:48:11.240Z,36.8
2019-03-10T06:49:01.858Z,37.4
2019-03-10T06:49:51.902Z,38
2019-03-10T06:50:42.260Z,38.5
2019-03-10T06:51:32.322Z,39.1
2019-03-10T06:52:22.399Z,39.6
2019-03-10T06:53:12.496Z,40.1
2019-03-10T06:54:02.503Z,40.7
2019-03-10T06:54:52.341Z,41.3
2019-03-10T06:55:42.348Z,41.9
2019-03-10T06:56:32.677Z,42.4
2019-03-10T06:57:22.459Z,43.8
2019-03-10T06:58:12.249Z,45.1
2019-03-10T06:59:02.572Z,44.3
2019-03-10T06:59:52.987Z,43.2
2019-03-10T07:00:43.012Z,40.8
2019-03-10T07:01:32.767Z,37.7
2019-03-10T07:02:23.094Z,35.8
2019-03-10T07:03:13.159Z,34.7
2019-03-10T07:05:38.680Z,34
2019-03-10T07:06:28.739Z,34.7
2019-03-10T07:07:18.809Z,34.9
2019-03-10T07:08:08.611Z,35.6
2019-03-10T07:08:59.201Z,36.3
2019-03-10T07:09:49.269Z,37.1
2019-03-10T07:10:39.339Z,37.8
2019-03-10T07:11:29.451Z,38.4
2019-03-10T07:12:19.453Z,38.9
2019-03-10T07:13:09.499Z,39.2
2019-03-10T07:13:59.010Z,39.2
2019-03-10T07:14:49.638Z,39.2
2019-03-10T07:15:39.141Z,39.1
2019-03-10T07:16:29.193Z,39.1
2019-03-10T07:17:19.528Z,39.1
2019-03-10T07:18:09.308Z,39.1
2019-03-10T07:18:59.994Z,39.3
2019-03-10T07:19:49.706Z,39.4
2019-03-10T07:20:39.781Z,39.6
2019-03-10T07:21:29.536Z,39.8
2019-03-10T07:22:19.892Z,40
2019-03-10T07:23:10.275Z,40.2
2019-03-10T07:24:00.026Z,40.4
2019-03-10T07:24:50.332Z,40.7
2019-03-10T07:25:39.870Z,41.1
2019-03-10T07:26:30.518Z,41.3
2019-03-10T07:27:20.233Z,41.6
2019-03-10T07:28:10.588Z,41.9
2019-03-10T07:29:00.360Z,42.2
2019-03-10T07:29:50.428Z,43.3
2019-03-10T07:30:40.488Z,44.3
2019-03-10T07:31:30.537Z,43.6
2019-03-10T07:32:20.956Z,43.1
2019-03-10T07:33:10.677Z,42.1
2019-03-10T07:34:01.001Z,40.4
2019-03-10T07:34:51.059Z,38.9
2019-03-10T07:35:40.857Z,37.8
2019-03-10T07:36:30.911Z,37.3
2019-03-10T07:37:20.980Z,37.2
2019-03-10T07:38:11.032Z,37.3
2019-03-10T07:39:01.370Z,37.4
2019-03-10T07:39:50.610Z,37.7
2019-03-10T07:40:40.662Z,38
2019-03-10T07:41:31.557Z,38.3
2019-03-10T07:42:21.604Z,38.8
2019-03-10T07:43:11.667Z,39.4
2019-03-10T07:44:01.737Z,40.1
2019-03-10T07:44:51.799Z,40.9
2019-03-10T07:45:41.556Z,41.8
2019-03-10T07:46:31.914Z,43.3
2019-03-10T07:47:21.704Z,45.6
2019-03-10T07:48:11.487Z,46
2019-03-10T07:49:02.104Z,46.1
2019-03-10T07:49:51.874Z,45.8
2019-03-10T07:50:42.211Z,44.6
2019-03-10T07:51:32.273Z,43.1
2019-03-10T07:52:22.766Z,42.2
2019-03-10T07:53:12.389Z,42.3
2019-03-10T07:54:02.170Z,43
2019-03-10T07:54:52.496Z,43.9
2019-03-10T07:55:42.296Z,44.7
2019-03-10T07:56:32.376Z,45.2
2019-03-10T07:57:22.491Z,45.3
2019-03-10T07:58:12.479Z,45.2
2019-03-10T07:59:02.290Z,44.9
2019-03-10T07:59:52.330Z,44.9
2019-03-10T08:00:42.981Z,45
2019-03-10T08:01:32.726Z,45.3
2019-03-10T08:02:23.067Z,45.6
2019-03-10T08:03:12.843Z,45.8
2019-03-10T08:04:02.961Z,45.9
2019-03-10T08:04:53.030Z,46
2019-03-10T08:05:43.313Z,46.1
2019-03-10T08:06:32.543Z,46.2
2019-03-10T08:07:23.188Z,46.5
2019-03-10T08:08:12.997Z,46.8
2019-03-10T08:09:03.548Z,47.1
2019-03-10T08:09:53.615Z,47.1
2019-03-10T08:10:43.090Z,47.2
2019-03-10T08:11:33.165Z,47.2
2019-03-10T08:12:23.489Z,47.3
2019-03-10T08:13:13.560Z,47.5
2019-03-10T08:14:03.615Z,47.7
2019-03-10T08:14:53.958Z,48
2019-03-10T08:15:43.748Z,48.3
2019-03-10T08:16:33.542Z,48.6
2019-03-10T08:17:26.300Z,48.8
2019-03-10T08:18:13.931Z,49
2019-03-10T08:19:04.002Z,49.2
2019-03-10T08:19:54.049Z,49.4
2019-03-10T08:20:44.384Z,49.7
2019-03-10T08:21:34.152Z,50.1
2019-03-10T08:22:24.235Z,50.3
2019-03-10T08:23:14.577Z,50.4
2019-03-10T08:24:04.624Z,50.3
2019-03-10T08:24:54.685Z,50
2019-03-10T08:25:44.192Z,49.6
2019-03-10T08:26:34.797Z,49.4
2019-03-10T08:27:24.883Z,49.6
2019-03-10T08:28:14.650Z,49.7
2019-03-10T08:29:04.989Z,49.8
2019-03-10T08:29:54.762Z,49.7
2019-03-10T08:30:44.871Z,49.4
2019-03-10T08:31:35.173Z,49.4
2019-03-10T08:32:24.704Z,49.6
2019-03-10T08:33:14.996Z,49.7
2019-03-10T08:34:05.079Z,49.9
2019-03-10T08:34:55.416Z,50.3
2019-03-10T08:35:45.244Z,50.6
2019-03-10T08:36:35.541Z,50.4
2019-03-10T08:37:25.588Z,49.9
2019-03-10T08:38:15.656Z,49.6
2019-03-10T08:39:05.476Z,49.5
2019-03-10T08:39:55.548Z,49.4
2019-03-10T08:40:45.563Z,49.6
2019-03-10T08:41:35.906Z,49.9
2019-03-10T08:42:26.006Z,50.1
2019-03-10T08:43:16.012Z,50.2
2019-03-10T08:44:06.078Z,50.3
2019-03-10T08:44:56.121Z,50.3
2019-03-10T08:45:46.238Z,50.3
2019-03-10T08:46:36.244Z,50.6
2019-03-10T08:47:25.506Z,50.9
2019-03-10T08:48:16.372Z,51.3
2019-03-10T08:49:06.168Z,51.3
2019-03-10T08:49:56.513Z,50.5
2019-03-10T08:50:46.568Z,49.7
2019-03-10T08:51:36.617Z,49.3
2019-03-10T08:52:26.670Z,49.3
2019-03-10T08:53:16.743Z,49.6
2019-03-10T08:54:06.797Z,50.2
2019-03-10T08:54:56.854Z,50.8
2019-03-10T08:55:46.445Z,51.1
2019-03-10T08:56:36.484Z,51.1
2019-03-10T08:57:27.110Z,50.9
2019-03-10T08:58:16.822Z,50.8
2019-03-10T08:59:07.215Z,50.8
2019-03-10T08:59:56.941Z,50.9
2019-03-10T09:00:47.060Z,51.3
2019-03-10T09:01:36.794Z,51.6
2019-03-10T09:02:27.405Z,51.9
2019-03-10T09:04:07.524Z,52.1
2019-03-10T09:04:57.321Z,52.4
2019-03-10T09:05:47.357Z,52.8
2019-03-10T09:06:37.697Z,53.2
2019-03-10T09:07:27.761Z,53.7
2019-03-10T09:08:17.547Z,54.1
2019-03-10T09:09:07.889Z,54.3
2019-03-10T09:09:57.955Z,54.4
2019-03-10T09:10:48.059Z,54.4
2019-03-10T09:11:38.064Z,54.4
2019-03-10T09:12:27.845Z,54.5
2019-03-10T09:13:18.189Z,54.6
2019-03-10T09:14:08.254Z,54.7
2019-03-10T09:14:58.033Z,54.8
2019-03-10T09:15:47.262Z,54.9
2019-03-10T09:16:38.424Z,55
2019-03-10T09:17:28.498Z,55.1
2019-03-10T09:18:18.009Z,55.2
2019-03-10T09:19:08.339Z,55.2
2019-03-10T09:19:58.675Z,55.3
2019-03-10T09:20:48.464Z,55.3
2019-03-10T09:21:38.804Z,55.4
2019-03-10T09:22:28.591Z,55.5
2019-03-10T09:23:18.926Z,55.6
2019-03-10T09:24:08.976Z,55.8
2019-03-10T09:24:59.036Z,56
2019-03-10T09:25:49.143Z,56.2
2019-03-10T09:26:38.323Z,56.4
2019-03-10T09:27:30.074Z,56.5
2019-03-10T09:28:19.302Z,56.6
2019-03-10T09:29:09.348Z,56.6
2019-03-10T09:29:59.416Z,56.6
2019-03-10T09:30:49.471Z,56.6
2019-03-10T09:31:39.236Z,56.8
2019-03-10T09:32:29.346Z,56.8
2019-03-10T09:33:19.641Z,56.9
2019-03-10T09:34:08.951Z,57
2019-03-10T09:34:59.752Z,57.1
2019-03-10T09:35:49.811Z,57.2
2019-03-10T09:36:39.877Z,57.3
2019-03-10T09:37:29.675Z,57.3
2019-03-10T09:38:19.995Z,57.4
2019-03-10T09:39:10.071Z,57.4
2019-03-10T09:40:00.273Z,57.5
2019-03-10T09:40:49.916Z,57.6
2019-03-10T09:41:39.965Z,57.6
2019-03-10T09:43:20.394Z,57.9
2019-03-10T09:44:10.160Z,58.1
2019-03-10T09:45:00.303Z,58.3
2019-03-10T09:45:50.280Z,58.4
2019-03-10T09:46:40.382Z,58.6
2019-03-10T09:47:30.137Z,58.9
2019-03-10T09:48:20.458Z,59
2019-03-10T09:49:10.787Z,59.3
2019-03-10T09:50:00.745Z,59.4
2019-03-10T09:50:50.922Z,59.5
2019-03-10T09:51:40.977Z,59.6
2019-03-10T09:52:30.744Z,59.6
2019-03-10T09:53:20.826Z,59.1
2019-03-10T09:54:11.159Z,58.5
2019-03-10T09:55:03.161Z,58.1
2019-03-10T09:55:50.989Z,57.9
2019-03-10T09:56:41.055Z,57.7
2019-03-10T09:57:30.842Z,57.8
2019-03-10T09:58:21.189Z,58.1
2019-03-10T09:59:11.514Z,58.3
2019-03-10T10:00:01.778Z,58.4
2019-03-10T10:00:51.626Z,58.4
2019-03-10T10:01:41.435Z,58.5
2019-03-10T10:02:31.206Z,58.5
2019-03-10T10:03:21.809Z,58.6
2019-03-10T10:04:11.919Z,58.8
2019-03-10T10:06:38.597Z,59.3
2019-03-10T10:07:28.366Z,59.4
2019-03-10T10:08:18.774Z,59.4
2019-03-10T10:09:08.741Z,59.5
2019-03-10T10:09:58.263Z,59.6
2019-03-10T10:10:48.859Z,59.6
2019-03-10T10:11:39.191Z,59.8
2019-03-10T10:12:28.695Z,59.9
2019-03-10T10:13:19.336Z,60.1
2019-03-10T10:14:09.371Z,60.2
2019-03-10T10:14:59.154Z,60.3
2019-03-10T10:15:49.490Z,60.4
2019-03-10T10:16:39.278Z,60.6
2019-03-10T10:17:29.338Z,60.8
2019-03-10T10:18:19.390Z,61
2019-03-10T10:19:09.793Z,61.2
2019-03-10T10:19:59.572Z,61.4
2019-03-10T10:20:49.855Z,61.6
2019-03-10T10:21:39.633Z,61.8
2019-03-10T10:22:29.707Z,61.9
2019-03-10T10:23:19.763Z,61.9
2019-03-10T10:24:09.830Z,61.9
2019-03-10T10:24:59.675Z,61.9
2019-03-10T10:25:49.753Z,61.9
2019-03-10T10:26:39.562Z,61.8
2019-03-10T10:27:29.603Z,61.8
2019-03-10T10:28:19.655Z,61.9
2019-03-10T10:29:09.988Z,61.9
2019-03-10T10:30:00.028Z,62
2019-03-10T10:30:49.838Z,62.1
2019-03-10T10:31:40.155Z,62.3
2019-03-10T10:32:30.227Z,62.5
2019-03-10T10:33:20.295Z,62.6
2019-03-10T10:34:10.545Z,62.8
2019-03-10T10:35:00.822Z,62.8
2019-03-10T10:35:50.390Z,62.8
2019-03-10T10:36:40.470Z,62.7
2019-03-10T10:37:30.794Z,62.6
2019-03-10T10:38:20.997Z,62.6
2019-03-10T10:39:10.907Z,62.5
2019-03-10T10:40:01.470Z,62.5
2019-03-10T10:40:51.036Z,62.5
2019-03-10T10:41:41.362Z,62.5
2019-03-10T10:42:31.421Z,62.6
2019-03-10T10:43:21.007Z,62.6
2019-03-10T10:44:11.552Z,62.6
2019-03-10T10:45:01.144Z,62.6
2019-03-10T10:45:53.957Z,62.6
2019-03-10T10:46:41.731Z,62.5
2019-03-10T10:47:31.537Z,62.5
2019-03-10T10:48:21.292Z,62.4
2019-03-10T10:49:11.670Z,62.5
2019-03-10T10:50:02.054Z,62.6
2019-03-10T10:50:51.522Z,62.7
2019-03-10T10:51:42.127Z,62.8
2019-03-10T10:52:32.259Z,62.8
2019-03-10T10:53:23.630Z,62.8
2019-03-10T10:54:12.328Z,62.9
2019-03-10T10:55:02.580Z,62.8
2019-03-10T10:55:52.447Z,62.8
2019-03-10T10:56:42.637Z,62.8
2019-03-10T10:57:32.273Z,62.8
2019-03-10T10:58:22.586Z,62.8
2019-03-10T10:59:12.373Z,62.7
2019-03-10T11:00:02.431Z,62.6
2019-03-10T11:00:52.763Z,62.4
2019-03-10T11:01:42.278Z,62.3
2019-03-10T11:02:32.871Z,62.4
2019-03-10T11:03:22.990Z,62.5
2019-03-10T11:04:13.005Z,62.6
2019-03-10T11:05:02.521Z,62.4
2019-03-10T11:05:53.121Z,62.1
2019-03-10T11:06:42.908Z,61.9
2019-03-10T11:07:32.958Z,61.8
2019-03-10T11:08:23.352Z,61.7
2019-03-10T11:09:13.113Z,61.7
2019-03-10T11:10:03.446Z,61.8
2019-03-10T11:10:52.967Z,61.8
2019-03-10T11:11:43.895Z,61.9
2019-03-10T11:12:33.333Z,62
2019-03-10T11:13:23.466Z,62
2019-03-10T11:14:13.452Z,62.1
2019-03-10T11:15:03.818Z,62.1
2019-03-10T11:15:55.202Z,62.1
2019-03-10T11:16:45.977Z,62.1
2019-03-10T11:17:33.414Z,62.2
2019-03-10T11:18:24.027Z,62.3
2019-03-10T11:19:13.811Z,62.3
2019-03-10T11:20:03.899Z,62.3
2019-03-10T11:20:56.795Z,62.2
2019-03-10T11:21:44.280Z,62.1
2019-03-10T11:22:34.385Z,62
2019-03-10T11:23:24.394Z,61.9
2019-03-10T11:24:14.453Z,61.9
2019-03-10T11:25:03.964Z,61.8
2019-03-10T11:25:54.090Z,61.8
2019-03-10T11:26:44.364Z,61.7
2019-03-10T11:27:34.225Z,61.6
2019-03-10T11:28:24.276Z,61.6
2019-03-10T11:29:14.343Z,61.4
2019-03-10T11:30:04.134Z,61.4
2019-03-10T11:30:54.197Z,61.4
2019-03-10T11:31:44.537Z,61.4
2019-03-10T11:32:34.584Z,61.5
2019-03-10T11:33:24.376Z,61.5
2019-03-10T11:34:14.434Z,61.6
2019-03-10T11:35:04.722Z,61.6
2019-03-10T11:35:55.249Z,61.6
2019-03-10T11:36:44.346Z,61.6
2019-03-10T11:37:34.949Z,61.6
2019-03-10T11:38:25.224Z,61.6
2019-03-10T11:39:15.083Z,61.7
2019-03-10T11:40:04.878Z,61.7
2019-03-10T11:40:55.398Z,61.8
2019-03-10T11:41:47.907Z,61.7
2019-03-10T11:42:35.798Z,61.8
2019-03-10T11:43:25.603Z,61.8
2019-03-10T11:44:15.937Z,61.9
2019-03-10T11:45:05.698Z,62
2019-03-10T11:45:55.778Z,62.1
2019-03-10T11:46:45.828Z,62.2
2019-03-10T11:47:35.911Z,62.3
2019-03-10T11:48:26.244Z,62.3
2019-03-10T11:49:16.021Z,62.1
2019-03-10T11:50:06.435Z,61.9
2019-03-10T11:50:56.400Z,61.7
2019-03-10T11:51:45.921Z,61.6
2019-03-10T11:52:35.978Z,61.5
2019-03-10T11:53:27.887Z,61.5
2019-03-10T11:54:16.400Z,61.4
2019-03-10T11:55:06.701Z,61.4
2019-03-10T11:55:56.783Z,61.4
2019-03-10T11:56:46.841Z,61.4
2019-03-10T11:57:36.917Z,61.5
2019-03-10T11:58:27.087Z,61.6
2019-03-10T11:59:16.742Z,61.6
2019-03-10T12:00:06.555Z,61.3
2019-03-10T12:00:56.870Z,60.8
2019-03-10T12:01:47.201Z,59.9
2019-03-10T12:02:36.990Z,59.1
2019-03-10T12:03:26.487Z,58.7
2019-03-10T12:04:17.118Z,58.8
2019-03-10T12:06:38.752Z,59.8
2019-03-10T12:07:28.255Z,60.1
2019-03-10T12:08:18.924Z,59.9
2019-03-10T12:09:08.666Z,59.8
2019-03-10T12:09:59.013Z,59.6
2019-03-10T12:10:48.772Z,59.7
2019-03-10T12:11:38.564Z,59.8
2019-03-10T12:12:28.889Z,60
2019-03-10T12:13:18.955Z,60.2
2019-03-10T12:14:09.009Z,60.4
2019-03-10T12:14:59.149Z,60.4
2019-03-10T12:15:49.151Z,60.4
2019-03-10T12:16:39.194Z,60.3
2019-03-10T12:17:29.254Z,60.3
2019-03-10T12:18:19.610Z,60.1
2019-03-10T12:19:09.389Z,60
2019-03-10T12:19:59.711Z,59.9
2019-03-10T12:20:49.794Z,59.8
2019-03-10T12:21:39.842Z,59.6
2019-03-10T12:22:29.617Z,59.6
2019-03-10T12:23:19.963Z,59.4
2019-03-10T12:24:09.838Z,59.3
2019-03-10T12:24:59.799Z,59.2
2019-03-10T12:25:50.144Z,59.1
2019-03-10T12:26:40.213Z,59.1
2019-03-10T12:27:30.322Z,59.1
2019-03-10T12:28:20.039Z,59
2019-03-10T12:29:10.087Z,59.1
2019-03-10T12:30:00.314Z,59
2019-03-10T12:30:49.935Z,59
2019-03-10T12:31:40.595Z,59.1
2019-03-10T12:32:29.788Z,59
2019-03-10T12:33:20.477Z,59.1
2019-03-10T12:34:10.509Z,59.1
2019-03-10T12:35:00.636Z,59.1
2019-03-10T12:35:50.573Z,59.1
2019-03-10T12:36:40.633Z,59.1
2019-03-10T12:37:30.980Z,59.1
2019-03-10T12:38:21.043Z,59.1
2019-03-10T12:39:10.825Z,59
2019-03-10T12:40:01.304Z,59
2019-03-10T12:40:50.954Z,58.9
2019-03-10T12:41:41.005Z,58.9
2019-03-10T12:42:31.348Z,58.8
2019-03-10T12:43:20.905Z,58.7
2019-03-10T12:44:11.190Z,58.7
2019-03-10T12:45:01.573Z,58.7
2019-03-10T12:45:51.590Z,58.7
2019-03-10T12:46:41.651Z,58.6
2019-03-10T12:48:21.763Z,58.6
2019-03-10T12:49:11.839Z,58.6
2019-03-10T12:50:51.974Z,58.5
2019-03-10T12:51:41.732Z,58.3
2019-03-10T12:52:31.789Z,57.9
2019-03-10T12:53:21.867Z,57.4
2019-03-10T12:54:11.912Z,57
2019-03-10T12:55:02.361Z,56.7
2019-03-10T12:55:51.780Z,56.5
2019-03-10T12:56:42.814Z,56.4
2019-03-10T12:57:32.185Z,56.3
2019-03-10T12:58:22.501Z,56.2
2019-03-10T12:59:11.783Z,56
2019-03-10T13:00:02.116Z,55.7
2019-03-10T13:00:52.727Z,55.4
2019-03-10T13:01:42.760Z,55.2
2019-03-10T13:02:32.811Z,55
2019-03-10T13:03:22.871Z,54.9
2019-03-10T13:04:12.643Z,54.8
2019-03-10T13:05:03.040Z,54.7
2019-03-10T13:05:52.511Z,54.6
2019-03-10T13:06:42.824Z,54.6
2019-03-10T13:07:33.173Z,54.4
2019-03-10T13:08:22.956Z,54.3
2019-03-10T13:09:13.018Z,54.3
2019-03-10T13:10:03.358Z,54.3
2019-03-10T13:10:53.412Z,54.2
2019-03-10T13:11:43.485Z,54.2
2019-03-10T13:12:33.281Z,54.1
2019-03-10T13:13:22.777Z,54.1
2019-03-10T13:14:13.664Z,54.1
2019-03-10T13:15:03.668Z,54.1
2019-03-10T13:15:53.498Z,53.9
2019-03-10T13:16:43.590Z,53.9
2019-03-10T13:17:33.906Z,53.8
2019-03-10T13:18:23.975Z,53.8
2019-03-10T13:19:14.110Z,53.7
2019-03-10T13:20:03.865Z,53.6
2019-03-10T13:20:54.148Z,53.6
2019-03-10T13:21:44.841Z,53.6
2019-03-10T13:22:34.275Z,53.6
2019-03-10T13:23:24.332Z,53.6
2019-03-10T13:24:14.395Z,53.5
2019-03-10T13:25:03.905Z,53.4
2019-03-10T13:25:54.256Z,53.1
2019-03-10T13:26:44.593Z,52.4
2019-03-10T13:28:24.495Z,51.8
2019-03-10T13:29:14.495Z,51.7
2019-03-10T13:30:04.548Z,51.7
2019-03-10T13:30:54.627Z,51.9
2019-03-10T13:31:44.942Z,52
2019-03-10T13:32:34.735Z,52.1
2019-03-10T13:33:24.802Z,52.3
2019-03-10T13:35:04.919Z,52.5
2019-03-10T13:35:57.555Z,52.6
2019-03-10T13:36:44.804Z,52.8
2019-03-10T13:37:35.090Z,52.9
2019-03-10T13:38:25.144Z,53.1
2019-03-10T13:39:15.196Z,53.2
2019-03-10T13:40:05.550Z,53.3
2019-03-10T13:40:55.602Z,53.4
2019-03-10T13:41:45.667Z,53.5
2019-03-10T13:42:35.174Z,53.5
2019-03-10T13:43:25.522Z,53.5
2019-03-10T13:44:15.567Z,53.4
2019-03-10T13:45:05.694Z,53.3
2019-03-10T13:45:55.717Z,53.1
2019-03-10T13:46:46.081Z,52.8
2019-03-10T13:47:36.114Z,52.4
2019-03-10T13:48:26.172Z,52.1
2019-03-10T13:49:15.931Z,51.8
2019-03-10T13:50:05.759Z,51.4
2019-03-10T13:50:56.329Z,51.1
2019-03-10T13:51:45.832Z,50.9
2019-03-10T13:52:36.219Z,50.7
2019-03-10T13:53:26.521Z,50.6
2019-03-10T13:54:16.589Z,50.4
2019-03-10T13:55:06.364Z,50.2
2019-03-10T13:55:56.165Z,50.1
2019-03-10T13:56:46.483Z,49.9
2019-03-10T13:57:36.840Z,49.8
2019-03-10T13:58:26.594Z,49.7
2019-03-10T13:59:16.396Z,49.5
2019-03-10T14:00:07.017Z,49.4
2019-03-10T14:00:57.058Z,49.1
2019-03-10T14:01:46.305Z,48.9
2019-03-10T14:02:36.908Z,48.7
2019-03-10T14:03:26.953Z,48.4
2019-03-10T14:04:17.028Z,48.2
2019-03-10T14:05:06.836Z,47.9
2019-03-10T14:07:38.705Z,47.4
2019-03-10T14:08:28.701Z,47.4
2019-03-10T14:09:18.486Z,47.5
2019-03-10T14:10:11.313Z,47.5
2019-03-10T14:10:58.893Z,47.6
2019-03-10T14:11:48.383Z,47.5
2019-03-10T14:12:39.114Z,47.6
2019-03-10T14:13:28.802Z,47.6
2019-03-10T14:14:19.134Z,47.8
2019-03-10T14:15:08.915Z,47.8
2019-03-10T14:15:59.042Z,47.8
2019-03-10T14:16:49.047Z,47.8
2019-03-10T14:17:38.868Z,47.8
2019-03-10T14:18:29.438Z,47.7
2019-03-10T14:19:19.215Z,47.6
2019-03-10T14:20:09.558Z,47.6
2019-03-10T14:20:59.342Z,47.5
2019-03-10T14:21:49.423Z,47.4
2019-03-10T14:22:39.729Z,47.3
2019-03-10T14:23:29.530Z,47.2
2019-03-10T14:24:19.860Z,47
2019-03-10T14:25:09.934Z,46.8
2019-03-10T14:26:00.055Z,46.5
2019-03-10T14:26:49.767Z,46.1
2019-03-10T14:27:39.814Z,45.8
2019-03-10T14:28:30.149Z,45.3
2019-03-10T14:29:19.942Z,44.8
2019-03-10T14:30:10.284Z,44.2
2019-03-10T14:31:00.057Z,43.6
2019-03-10T14:31:50.139Z,43
2019-03-10T14:32:40.522Z,42.4
2019-03-10T14:33:30.257Z,41.8
2019-03-10T14:34:19.499Z,41.2
2019-03-10T14:35:10.651Z,40.7